Accueil
METAR-TAF:

METAR-TAF

Aéroports :

Bowers Field

Ellensburg, Washington, États-Unis

latitude: 47-02-01N, longitude: 120-31-45W, altitude: 536 m

Observation

Le bulletin a été fait il y a 9 minutes, à 19:53 UTC
Vent calme
Température 1°C
Humidité 75%
Pression 1013 hPa
Visibilité: 16.1 km
Quelques nuages à une hauteur de 5000 ft
Nuages fragmentés à une hauteur de 8000 ft
Ciel couvert à une hauteur de 9500 ft

METAR: KELN 211953Z AUTO 00000KT 10SM FEW050 BKN080 OVC095 01/M03 A2990 RMK AO2 RAB14E26 SLP143 P0000 T00111028

Heure: 12:02 (20:02 UTC)


TAF: absent

Observations et prévisions météorologiques de plus de 4000 aéroports (messages METAR et TAF).

Les stations disponibles sont représentées par des disques jaunes et rouges sur la carte.

Passer la souris dessus pour voir le nom de la station.

Cliquer dessus pour voir les observations et prévisions météorologiques.

Pour changer de carte: cliquez sur les boutons verts avec une croix noire pour zoomer, sur le bouton vert avec un tiret pour effectuer un zoom arrière, ou sur les flèches vertes pour les cartes adjacentes.


METAR-TAF: